UAL577 KEWR-KBOS
Flight info
| Callsign | UAL577 |
|---|---|
| Flight time | 0h 46m |
| Altitude | 21000 |
| Route | MERIT ROBUC3 |
| Aircraft | B38M/M-SDE1FGHILORVWXY/HB1 |
Departure
| Time | 2026-05-05 18:52 |
|---|---|
| Airport | Newark Liberty International Airport (KEWR) |
Arrival
| Time | 2026-05-05 19:39 |
|---|---|
| Airport | Boston Logan International Airport (KBOS) |
| Time | Latitude | Longitude | Altitude | Speed | Heading |
|---|---|---|---|---|---|
| 2026-05-05 17:23 | 40.69650 | -74.17533 | 26 ft | 0 kts | 310° |
| 2026-05-05 18:42 | 40.69651 | -74.17535 | 23 ft | 3 kts | 309° |
| 2026-05-05 18:42 | 40.69638 | -74.17521 | 27 ft | 3 kts | 326° |
| 2026-05-05 18:42 | 40.69620 | -74.17508 | 24 ft | 3 kts | 344° |
| 2026-05-05 18:43 | 40.69605 | -74.17507 | 25 ft | 2 kts | 31° |
| 2026-05-05 18:43 | 40.69600 | -74.17511 | 24 ft | 1 kts | 41° |
| 2026-05-05 18:47 | 40.69602 | -74.17509 | 24 ft | 1 kts | 41° |
| 2026-05-05 18:48 | 40.69617 | -74.17492 | 27 ft | 4 kts | 41° |
| 2026-05-05 18:48 | 40.69646 | -74.17459 | 23 ft | 8 kts | 41° |
| 2026-05-05 18:48 | 40.69690 | -74.17409 | 24 ft | 17 kts | 43° |
| 2026-05-05 18:48 | 40.69800 | -74.17286 | 25 ft | 23 kts | 44° |
| 2026-05-05 18:49 | 40.69867 | -74.17169 | 26 ft | 8 kts | 100° |
| 2026-05-05 18:49 | 40.69835 | -74.17122 | 25 ft | 9 kts | 145° |
| 2026-05-05 18:49 | 40.69768 | -74.17058 | 28 ft | 15 kts | 145° |
| 2026-05-05 18:49 | 40.69653 | -74.17021 | 24 ft | 20 kts | 184° |
| 2026-05-05 18:50 | 40.69579 | -74.16932 | 21 ft | 7 kts | 91° |
| 2026-05-05 18:50 | 40.69596 | -74.16903 | 22 ft | 5 kts | 19° |
| 2026-05-05 18:50 | 40.69669 | -74.16869 | 21 ft | 17 kts | 21° |
| 2026-05-05 18:50 | 40.69780 | -74.16773 | 21 ft | 22 kts | 60° |
| 2026-05-05 18:51 | 40.69854 | -74.16628 | 18 ft | 16 kts | 27° |
| 2026-05-05 18:51 | 40.69922 | -74.16551 | 18 ft | 11 kts | 88° |
| 2026-05-05 18:51 | 40.69865 | -74.16474 | 18 ft | 13 kts | 175° |
| 2026-05-05 18:51 | 40.69770 | -74.16528 | 19 ft | 29 kts | 208° |
| 2026-05-05 18:52 | 40.69312 | -74.16818 | 29 ft | 114 kts | 205° |
| 2026-05-05 18:52 | 40.68389 | -74.17389 | 210 ft | 170 kts | 205° |
| 2026-05-05 18:52 | 40.67215 | -74.18160 | 847 ft | 204 kts | 207° |
| 2026-05-05 18:52 | 40.65835 | -74.18938 | 1687 ft | 227 kts | 196° |
| 2026-05-05 18:53 | 40.64206 | -74.19061 | 2587 ft | 254 kts | 183° |
| 2026-05-05 18:53 | 40.62146 | -74.19364 | 2119 ft | 329 kts | 199° |
| 2026-05-05 18:53 | 40.60121 | -74.20538 | 3157 ft | 313 kts | 207° |
| 2026-05-05 18:53 | 40.58233 | -74.21825 | 3900 ft | 298 kts | 208° |
| 2026-05-05 18:54 | 40.56442 | -74.23059 | 4702 ft | 282 kts | 208° |
| 2026-05-05 18:54 | 40.54626 | -74.23811 | 5433 ft | 270 kts | 187° |
| 2026-05-05 18:54 | 40.52818 | -74.23433 | 6191 ft | 264 kts | 163° |
| 2026-05-05 18:54 | 40.51221 | -74.22189 | 6556 ft | 274 kts | 146° |
| 2026-05-05 18:55 | 40.50035 | -74.20139 | 6825 ft | 291 kts | 120° |
| 2026-05-05 18:55 | 40.49569 | -74.17497 | 7005 ft | 307 kts | 95° |
| 2026-05-05 18:55 | 40.49825 | -74.14680 | 7283 ft | 313 kts | 82° |
| 2026-05-05 18:55 | 40.50499 | -74.11939 | 7460 ft | 320 kts | 58° |
| 2026-05-05 18:56 | 40.51995 | -74.09879 | 7743 ft | 316 kts | 32° |
| 2026-05-05 18:56 | 40.53818 | -74.08213 | 8181 ft | 320 kts | 33° |
| 2026-05-05 18:56 | 40.55591 | -74.06455 | 9401 ft | 322 kts | 33° |
| 2026-05-05 18:56 | 40.57378 | -74.04597 | 10266 ft | 335 kts | 34° |
| 2026-05-05 18:57 | 40.59226 | -74.02614 | 10749 ft | 352 kts | 35° |
| 2026-05-05 18:57 | 40.61103 | -74.00562 | 11054 ft | 369 kts | 36° |
| 2026-05-05 18:57 | 40.63092 | -73.98358 | 11376 ft | 379 kts | 36° |
| 2026-05-05 18:57 | 40.65122 | -73.96101 | 11495 ft | 383 kts | 36° |
| 2026-05-05 18:58 | 40.67162 | -73.93833 | 11558 ft | 384 kts | 36° |
| 2026-05-05 18:58 | 40.69203 | -73.91564 | 11637 ft | 384 kts | 36° |
| 2026-05-05 18:58 | 40.71250 | -73.89287 | 11683 ft | 384 kts | 36° |
| 2026-05-05 18:58 | 40.73295 | -73.87009 | 11755 ft | 384 kts | 36° |
| 2026-05-05 18:59 | 40.75338 | -73.84733 | 11832 ft | 384 kts | 36° |
| 2026-05-05 18:59 | 40.77350 | -73.82488 | 11920 ft | 384 kts | 36° |
| 2026-05-05 18:59 | 40.79389 | -73.80214 | 12011 ft | 384 kts | 36° |
| 2026-05-05 18:59 | 40.81433 | -73.77929 | 12108 ft | 385 kts | 36° |
| 2026-05-05 19:00 | 40.83477 | -73.75644 | 12245 ft | 385 kts | 36° |
| 2026-05-05 19:00 | 40.85506 | -73.73374 | 12387 ft | 384 kts | 36° |
| 2026-05-05 19:00 | 40.87544 | -73.71091 | 12477 ft | 384 kts | 36° |
| 2026-05-05 19:00 | 40.89583 | -73.68806 | 12531 ft | 385 kts | 36° |
| 2026-05-05 19:01 | 40.91623 | -73.66517 | 12539 ft | 384 kts | 36° |
| 2026-05-05 19:01 | 40.93662 | -73.64228 | 12510 ft | 384 kts | 36° |
| 2026-05-05 19:01 | 40.95694 | -73.61945 | 12469 ft | 383 kts | 36° |
| 2026-05-05 19:01 | 40.97723 | -73.59662 | 12430 ft | 382 kts | 36° |
| 2026-05-05 19:02 | 40.99752 | -73.57379 | 12396 ft | 382 kts | 36° |
| 2026-05-05 19:02 | 41.01779 | -73.55096 | 12527 ft | 382 kts | 36° |
| 2026-05-05 19:02 | 41.03800 | -73.52817 | 13070 ft | 383 kts | 36° |
| 2026-05-05 19:02 | 41.05840 | -73.50515 | 13681 ft | 385 kts | 36° |
| 2026-05-05 19:03 | 41.07860 | -73.48234 | 14213 ft | 387 kts | 36° |
| 2026-05-05 19:03 | 41.09914 | -73.45910 | 14755 ft | 389 kts | 36° |
| 2026-05-05 19:03 | 41.11983 | -73.43570 | 15306 ft | 392 kts | 37° |
| 2026-05-05 19:03 | 41.14061 | -73.41217 | 15884 ft | 394 kts | 37° |
| 2026-05-05 19:04 | 41.16151 | -73.38848 | 16453 ft | 396 kts | 37° |
| 2026-05-05 19:04 | 41.18257 | -73.36460 | 17041 ft | 399 kts | 37° |
| 2026-05-05 19:04 | 41.20378 | -73.34053 | 17652 ft | 402 kts | 37° |
| 2026-05-05 19:04 | 41.22514 | -73.31625 | 18247 ft | 405 kts | 38° |
| 2026-05-05 19:05 | 41.24640 | -73.29208 | 18748 ft | 409 kts | 38° |
| 2026-05-05 19:05 | 41.26812 | -73.26736 | 19278 ft | 412 kts | 38° |
| 2026-05-05 19:05 | 41.28995 | -73.24250 | 19817 ft | 415 kts | 38° |
| 2026-05-05 19:05 | 41.31199 | -73.21737 | 20368 ft | 419 kts | 38° |
| 2026-05-05 19:06 | 41.33423 | -73.19199 | 20787 ft | 424 kts | 38° |
| 2026-05-05 19:06 | 41.35635 | -73.16583 | 20871 ft | 425 kts | 44° |
| 2026-05-05 19:06 | 41.37364 | -73.13398 | 20902 ft | 427 kts | 62° |
| 2026-05-05 19:06 | 41.38381 | -73.09678 | 20914 ft | 429 kts | 77° |
| 2026-05-05 19:07 | 41.38936 | -73.05771 | 20917 ft | 429 kts | 80° |
| 2026-05-05 19:07 | 41.39428 | -73.01844 | 20909 ft | 430 kts | 81° |
| 2026-05-05 19:07 | 41.39887 | -72.97909 | 20904 ft | 430 kts | 82° |
| 2026-05-05 19:07 | 41.40321 | -72.94025 | 20890 ft | 430 kts | 82° |
| 2026-05-05 19:08 | 41.40755 | -72.90033 | 20894 ft | 430 kts | 82° |
| 2026-05-05 19:08 | 41.41174 | -72.86131 | 20898 ft | 430 kts | 82° |
| 2026-05-05 19:08 | 41.41594 | -72.82187 | 20902 ft | 430 kts | 82° |
| 2026-05-05 19:08 | 41.42011 | -72.78249 | 20899 ft | 430 kts | 82° |
| 2026-05-05 19:09 | 41.42430 | -72.74288 | 20906 ft | 430 kts | 82° |
| 2026-05-05 19:09 | 41.42847 | -72.70338 | 20908 ft | 430 kts | 82° |
| 2026-05-05 19:09 | 41.43262 | -72.66389 | 20914 ft | 430 kts | 82° |
| 2026-05-05 19:09 | 41.43674 | -72.62445 | 20917 ft | 430 kts | 82° |
| 2026-05-05 19:10 | 41.44086 | -72.58495 | 20904 ft | 430 kts | 83° |
| 2026-05-05 19:10 | 41.44493 | -72.54588 | 20913 ft | 431 kts | 83° |
| 2026-05-05 19:10 | 41.44902 | -72.50634 | 20915 ft | 430 kts | 83° |
| 2026-05-05 19:10 | 41.45310 | -72.46684 | 20914 ft | 430 kts | 83° |
| 2026-05-05 19:11 | 41.45716 | -72.42742 | 20918 ft | 430 kts | 83° |
| 2026-05-05 19:11 | 41.46122 | -72.38784 | 20914 ft | 430 kts | 83° |
| 2026-05-05 19:11 | 41.46526 | -72.34831 | 20911 ft | 430 kts | 83° |
| 2026-05-05 19:11 | 41.46929 | -72.30876 | 20913 ft | 430 kts | 83° |
| 2026-05-05 19:12 | 41.47331 | -72.26921 | 20908 ft | 430 kts | 83° |
| 2026-05-05 19:12 | 41.47744 | -72.22970 | 20902 ft | 430 kts | 80° |
| 2026-05-05 19:12 | 41.48664 | -72.19190 | 20903 ft | 428 kts | 64° |
| 2026-05-05 19:12 | 41.49947 | -72.15588 | 20886 ft | 429 kts | 64° |
| 2026-05-05 19:13 | 41.51221 | -72.12028 | 20885 ft | 429 kts | 64° |
| 2026-05-05 19:13 | 41.52522 | -72.08434 | 20876 ft | 430 kts | 63° |
| 2026-05-05 19:13 | 41.53826 | -72.04851 | 20604 ft | 428 kts | 63° |
| 2026-05-05 19:13 | 41.55126 | -72.01281 | 20341 ft | 426 kts | 64° |
| 2026-05-05 19:14 | 41.56266 | -71.97643 | 20053 ft | 425 kts | 68° |
| 2026-05-05 19:14 | 41.57368 | -71.93994 | 19634 ft | 423 kts | 68° |
| 2026-05-05 19:14 | 41.58463 | -71.90414 | 19142 ft | 421 kts | 68° |
| 2026-05-05 19:14 | 41.59569 | -71.86777 | 18652 ft | 420 kts | 68° |
| 2026-05-05 19:15 | 41.60623 | -71.83196 | 18700 ft | 415 kts | 68° |
| 2026-05-05 19:15 | 41.61682 | -71.79609 | 18455 ft | 415 kts | 68° |
| 2026-05-05 19:15 | 41.62738 | -71.76032 | 18121 ft | 414 kts | 68° |
| 2026-05-05 19:15 | 41.63792 | -71.72459 | 17679 ft | 411 kts | 68° |
| 2026-05-05 19:16 | 41.64839 | -71.68905 | 17245 ft | 409 kts | 68° |
| 2026-05-05 19:16 | 41.65878 | -71.65374 | 16814 ft | 408 kts | 68° |
| 2026-05-05 19:16 | 41.66912 | -71.61853 | 16394 ft | 406 kts | 68° |
| 2026-05-05 19:16 | 41.67940 | -71.58347 | 15976 ft | 404 kts | 68° |
| 2026-05-05 19:17 | 41.68966 | -71.54846 | 15495 ft | 404 kts | 68° |
| 2026-05-05 19:17 | 41.69990 | -71.51344 | 14978 ft | 404 kts | 68° |
| 2026-05-05 19:17 | 41.71020 | -71.47818 | 14373 ft | 407 kts | 67° |
| 2026-05-05 19:17 | 41.72053 | -71.44275 | 13825 ft | 409 kts | 67° |
| 2026-05-05 19:18 | 41.73306 | -71.40939 | 13210 ft | 403 kts | 56° |
| 2026-05-05 19:18 | 41.74715 | -71.37758 | 12611 ft | 393 kts | 58° |
| 2026-05-05 19:18 | 41.76057 | -71.34621 | 12016 ft | 384 kts | 58° |
| 2026-05-05 19:18 | 41.77367 | -71.31518 | 11335 ft | 380 kts | 59° |
| 2026-05-05 19:19 | 41.78658 | -71.28445 | 10647 ft | 377 kts | 58° |
| 2026-05-05 19:19 | 41.79951 | -71.25431 | 10226 ft | 366 kts | 59° |
| 2026-05-05 19:19 | 41.81208 | -71.22487 | 10160 ft | 363 kts | 59° |
| 2026-05-05 19:19 | 41.82464 | -71.19539 | 10093 ft | 362 kts | 59° |
| 2026-05-05 19:20 | 41.83712 | -71.16604 | 10079 ft | 362 kts | 59° |
| 2026-05-05 19:20 | 41.84942 | -71.13704 | 10083 ft | 362 kts | 59° |
| 2026-05-05 19:20 | 41.86200 | -71.10782 | 10091 ft | 362 kts | 58° |
| 2026-05-05 19:20 | 41.87466 | -71.07862 | 9932 ft | 362 kts | 58° |
| 2026-05-05 19:21 | 41.88726 | -71.04946 | 9708 ft | 361 kts | 58° |
| 2026-05-05 19:21 | 41.89984 | -71.02031 | 9458 ft | 359 kts | 59° |
| 2026-05-05 19:21 | 41.91233 | -70.99133 | 9226 ft | 358 kts | 59° |
| 2026-05-05 19:21 | 41.92461 | -70.96281 | 8986 ft | 345 kts | 59° |
| 2026-05-05 19:22 | 41.93647 | -70.93524 | 8744 ft | 337 kts | 59° |
| 2026-05-05 19:22 | 41.94810 | -70.90817 | 8600 ft | 332 kts | 59° |
| 2026-05-05 19:22 | 41.95963 | -70.88134 | 8582 ft | 331 kts | 59° |
| 2026-05-05 19:22 | 41.97114 | -70.85454 | 8563 ft | 331 kts | 59° |
| 2026-05-05 19:23 | 41.98247 | -70.82809 | 8578 ft | 331 kts | 59° |
| 2026-05-05 19:23 | 41.99399 | -70.80119 | 8577 ft | 332 kts | 59° |
| 2026-05-05 19:23 | 42.00548 | -70.77436 | 8589 ft | 331 kts | 59° |
| 2026-05-05 19:23 | 42.01875 | -70.74936 | 8525 ft | 328 kts | 45° |
| 2026-05-05 19:24 | 42.03422 | -70.72675 | 8416 ft | 328 kts | 45° |
| 2026-05-05 19:24 | 42.04945 | -70.70427 | 8264 ft | 321 kts | 46° |
| 2026-05-05 19:24 | 42.06426 | -70.68225 | 8116 ft | 314 kts | 46° |
| 2026-05-05 19:24 | 42.07866 | -70.66072 | 8064 ft | 302 kts | 46° |
| 2026-05-05 19:25 | 42.09249 | -70.64002 | 8056 ft | 295 kts | 46° |
| 2026-05-05 19:25 | 42.10779 | -70.62214 | 8011 ft | 286 kts | 22° |
| 2026-05-05 19:25 | 42.12613 | -70.61349 | 8051 ft | 278 kts | 6° |
| 2026-05-05 19:25 | 42.14499 | -70.60728 | 8049 ft | 279 kts | 6° |
| 2026-05-05 19:26 | 42.16391 | -70.60142 | 7969 ft | 278 kts | 5° |
| 2026-05-05 19:26 | 42.18281 | -70.59582 | 7821 ft | 277 kts | 4° |
| 2026-05-05 19:26 | 42.20144 | -70.59043 | 7671 ft | 277 kts | 4° |
| 2026-05-05 19:26 | 42.22035 | -70.58504 | 7503 ft | 277 kts | 4° |
| 2026-05-05 19:27 | 42.23929 | -70.57969 | 7251 ft | 278 kts | 4° |
| 2026-05-05 19:27 | 42.25829 | -70.57437 | 6973 ft | 279 kts | 4° |
| 2026-05-05 19:27 | 42.27733 | -70.56903 | 6690 ft | 280 kts | 5° |
| 2026-05-05 19:27 | 42.29652 | -70.56367 | 6335 ft | 283 kts | 4° |
| 2026-05-05 19:28 | 42.31567 | -70.56275 | 5896 ft | 271 kts | 339° |
| 2026-05-05 19:28 | 42.33245 | -70.57215 | 5517 ft | 254 kts | 315° |
| 2026-05-05 19:28 | 42.34616 | -70.58685 | 5181 ft | 250 kts | 310° |
| 2026-05-05 19:28 | 42.35896 | -70.60170 | 5064 ft | 240 kts | 308° |
| 2026-05-05 19:29 | 42.37134 | -70.61677 | 5046 ft | 235 kts | 307° |
| 2026-05-05 19:29 | 42.38312 | -70.63159 | 5034 ft | 234 kts | 307° |
| 2026-05-05 19:29 | 42.39489 | -70.64665 | 5024 ft | 232 kts | 306° |
| 2026-05-05 19:29 | 42.40657 | -70.66175 | 4989 ft | 233 kts | 306° |
| 2026-05-05 19:30 | 42.41826 | -70.67696 | 4791 ft | 233 kts | 307° |
| 2026-05-05 19:30 | 42.42991 | -70.69219 | 4612 ft | 232 kts | 306° |
| 2026-05-05 19:30 | 42.44131 | -70.70715 | 4475 ft | 224 kts | 306° |
| 2026-05-05 19:30 | 42.45233 | -70.72164 | 4315 ft | 217 kts | 305° |
| 2026-05-05 19:31 | 42.46301 | -70.73571 | 4187 ft | 212 kts | 305° |
| 2026-05-05 19:31 | 42.47356 | -70.74965 | 4081 ft | 212 kts | 305° |
| 2026-05-05 19:31 | 42.48414 | -70.76361 | 3979 ft | 212 kts | 306° |
| 2026-05-05 19:31 | 42.49471 | -70.77757 | 3845 ft | 211 kts | 306° |
| 2026-05-05 19:32 | 42.50509 | -70.79129 | 3743 ft | 211 kts | 306° |
| 2026-05-05 19:32 | 42.51587 | -70.80485 | 3618 ft | 215 kts | 313° |
| 2026-05-05 19:32 | 42.52669 | -70.81814 | 3579 ft | 200 kts | 291° |
| 2026-05-05 19:32 | 42.52929 | -70.83522 | 3550 ft | 176 kts | 259° |
| 2026-05-05 19:33 | 42.52896 | -70.85125 | 3439 ft | 167 kts | 262° |
| 2026-05-05 19:33 | 42.52909 | -70.86688 | 3327 ft | 165 kts | 263° |
| 2026-05-05 19:33 | 42.52939 | -70.88249 | 3226 ft | 167 kts | 265° |
| 2026-05-05 19:33 | 42.52983 | -70.89853 | 3110 ft | 173 kts | 265° |
| 2026-05-05 19:34 | 42.52936 | -70.90924 | 3025 ft | 170 kts | 248° |
| 2026-05-05 19:34 | 42.52310 | -70.92189 | 2970 ft | 161 kts | 218° |
| 2026-05-05 19:34 | 42.51376 | -70.93064 | 2859 ft | 164 kts | 210° |
| 2026-05-05 19:35 | 42.48971 | -70.94437 | 2429 ft | 154 kts | 202° |
| 2026-05-05 19:35 | 42.48301 | -70.94770 | 2295 ft | 150 kts | 201° |
| 2026-05-05 19:35 | 42.47351 | -70.95233 | 2087 ft | 145 kts | 201° |
| 2026-05-05 19:35 | 42.46412 | -70.95690 | 1883 ft | 143 kts | 201° |
| 2026-05-05 19:36 | 42.45472 | -70.96148 | 1710 ft | 144 kts | 200° |
| 2026-05-05 19:36 | 42.44545 | -70.96599 | 1569 ft | 141 kts | 200° |
| 2026-05-05 19:36 | 42.43631 | -70.97039 | 1365 ft | 138 kts | 201° |
| 2026-05-05 19:36 | 42.42755 | -70.97467 | 1153 ft | 127 kts | 200° |
| 2026-05-05 19:37 | 42.41932 | -70.97868 | 942 ft | 127 kts | 201° |
| 2026-05-05 19:37 | 42.41070 | -70.98287 | 798 ft | 137 kts | 202° |
| 2026-05-05 19:37 | 42.40191 | -70.98729 | 722 ft | 139 kts | 201° |
| 2026-05-05 19:37 | 42.39295 | -70.99163 | 534 ft | 138 kts | 200° |
| 2026-05-05 19:38 | 42.38395 | -70.99591 | 299 ft | 134 kts | 200° |
| 2026-05-05 19:38 | 42.37552 | -70.99999 | 101 ft | 124 kts | 199° |
| 2026-05-05 19:38 | 42.36785 | -71.00372 | 30 ft | 106 kts | 198° |
| 2026-05-05 19:38 | 42.36199 | -71.00652 | 28 ft | 64 kts | 199° |
| 2026-05-05 19:39 | 42.35923 | -71.00783 | 24 ft | 28 kts | 199° |
| 2026-05-05 19:39 | 42.35806 | -71.00891 | 24 ft | 13 kts | 259° |
| 2026-05-05 19:39 | 42.35819 | -71.00999 | 28 ft | 12 kts | 278° |
| 2026-05-05 19:39 | 42.35831 | -71.01119 | 26 ft | 16 kts | 277° |
| 2026-05-05 19:40 | 42.35849 | -71.01293 | 29 ft | 22 kts | 278° |
| 2026-05-05 19:40 | 42.35876 | -71.01505 | 32 ft | 16 kts | 281° |
| 2026-05-05 19:40 | 42.35905 | -71.01620 | 33 ft | 7 kts | 330° |
| 2026-05-05 19:40 | 42.35955 | -71.01610 | 32 ft | 8 kts | 21° |
| 2026-05-05 19:41 | 42.36021 | -71.01593 | 31 ft | 4 kts | 349° |
| 2026-05-05 19:41 | 42.36035 | -71.01610 | 30 ft | 1 kts | 297° |
| 2026-05-05 19:41 | 42.36033 | -71.01623 | 30 ft | 4 kts | 259° |
| 2026-05-05 19:41 | 42.36038 | -71.01672 | 30 ft | 6 kts | 288° |
| 2026-05-05 19:42 | 42.36044 | -71.01696 | 29 ft | 1 kts | 289° |